createdAt,value
2022-12-15T00:00:12.053Z,0.00
2022-12-15T00:02:59.567Z,0.00
2022-12-15T00:05:45.129Z,0.00
2022-12-15T00:08:36.112Z,0.00
2022-12-15T00:11:22.510Z,0.00
2022-12-15T00:14:08.254Z,-0.10
2022-12-15T00:16:54.142Z,-0.10
2022-12-15T00:19:41.340Z,-0.20
2022-12-15T00:22:26.907Z,-0.20
2022-12-15T00:25:12.689Z,-0.20
2022-12-15T00:27:58.393Z,-0.20
2022-12-15T00:30:44.124Z,-0.20
2022-12-15T00:33:35.680Z,-0.30
2022-12-15T00:36:23.346Z,-0.40
2022-12-15T00:38:52.269Z,-0.40
2022-12-15T00:41:20.699Z,-0.40
2022-12-15T00:43:48.915Z,-0.40
2022-12-15T00:46:34.768Z,-0.40
2022-12-15T00:49:03.457Z,-0.30
2022-12-15T00:51:50.751Z,-0.20
2022-12-15T00:54:36.788Z,-0.20
2022-12-15T00:57:22.488Z,-0.20
2022-12-15T01:00:08.306Z,-0.20
2022-12-15T01:02:54.503Z,-0.30
2022-12-15T01:05:40.486Z,-0.30
2022-12-15T01:08:27.780Z,-0.40
2022-12-15T01:11:13.570Z,-0.40
2022-12-15T01:13:59.412Z,-0.30
2022-12-15T01:16:45.131Z,-0.40
2022-12-15T01:19:31.081Z,-0.40
2022-12-15T01:21:59.278Z,-0.40
2022-12-15T01:24:28.831Z,-0.40
2022-12-15T01:26:57.791Z,-0.40
2022-12-15T01:29:26.517Z,-0.30
2022-12-15T01:31:55.140Z,-0.30
2022-12-15T01:34:23.330Z,-0.20
2022-12-15T01:36:51.524Z,-0.20
2022-12-15T01:39:19.772Z,-0.20
2022-12-15T01:41:48.275Z,-0.20
2022-12-15T01:44:19.843Z,-0.20
2022-12-15T01:46:50.336Z,-0.10
2022-12-15T01:49:25.027Z,-0.10
2022-12-15T01:51:58.029Z,-0.10
2022-12-15T01:54:30.033Z,-0.20
2022-12-15T01:57:06.235Z,-0.20
2022-12-15T01:59:43.309Z,-0.20
2022-12-15T02:02:12.211Z,-0.20
2022-12-15T02:04:41.652Z,-0.20
2022-12-15T02:07:14.094Z,-0.20
2022-12-15T02:09:43.268Z,-0.20
2022-12-15T02:12:25.804Z,-0.30
2022-12-15T02:15:10.078Z,-0.30
2022-12-15T02:17:50.263Z,-0.30
2022-12-15T02:20:47.482Z,-0.30
2022-12-15T02:24:15.871Z,-0.30
2022-12-15T02:27:26.291Z,-0.20
2022-12-15T02:30:18.351Z,-0.20
2022-12-15T02:32:59.651Z,-0.10
2022-12-15T02:35:48.747Z,-0.10
2022-12-15T02:38:17.030Z,-0.10
2022-12-15T02:40:45.864Z,0.00
2022-12-15T02:43:13.988Z,0.00
2022-12-15T02:45:57.222Z,0.00
2022-12-15T02:48:33.202Z,0.00
2022-12-15T02:51:19.207Z,0.00
2022-12-15T02:54:18.067Z,0.00
2022-12-15T02:56:58.417Z,-0.10
2022-12-15T02:59:35.183Z,-0.20
2022-12-15T03:02:07.720Z,-0.10
2022-12-15T03:04:36.118Z,-0.10
2022-12-15T03:07:07.310Z,-0.10
2022-12-15T03:09:35.874Z,-0.10
2022-12-15T03:12:04.275Z,-0.10
2022-12-15T03:14:32.507Z,-0.20
2022-12-15T03:17:00.725Z,-0.20
2022-12-15T03:19:30.275Z,-0.20
2022-12-15T03:21:58.431Z,-0.20
2022-12-15T03:24:26.721Z,-0.20
2022-12-15T03:26:54.943Z,-0.20
2022-12-15T03:29:23.114Z,-0.20
2022-12-15T03:31:51.352Z,-0.10
2022-12-15T03:34:19.796Z,-0.10
2022-12-15T03:36:49.368Z,-0.10
2022-12-15T03:39:17.689Z,-0.10
2022-12-15T03:41:45.814Z,-0.10
2022-12-15T03:44:14.093Z,-0.10
2022-12-15T03:46:42.260Z,-0.10
2022-12-15T03:49:10.390Z,-0.10
2022-12-15T03:51:38.501Z,-0.10
2022-12-15T03:54:08.813Z,-0.10
2022-12-15T03:56:36.956Z,-0.10
2022-12-15T03:59:05.173Z,-0.10
2022-12-15T04:01:36.182Z,-0.10
2022-12-15T04:04:05.947Z,-0.20
2022-12-15T04:06:34.307Z,-0.20
2022-12-15T04:09:02.435Z,-0.20
2022-12-15T04:11:31.915Z,-0.10
2022-12-15T04:14:00.019Z,-0.10
2022-12-15T04:16:28.203Z,-0.10
2022-12-15T04:19:10.306Z,-0.10
2022-12-15T04:21:38.486Z,-0.10
2022-12-15T04:24:25.152Z,-0.20
2022-12-15T04:27:12.404Z,-0.10
2022-12-15T04:29:58.422Z,-0.10
2022-12-15T04:32:44.074Z,-0.10
2022-12-15T04:35:35.979Z,-0.10
2022-12-15T04:38:21.658Z,-0.10
2022-12-15T04:41:07.216Z,0.00
2022-12-15T04:43:54.096Z,0.00
2022-12-15T04:46:40.213Z,0.00
2022-12-15T04:49:25.816Z,0.00
2022-12-15T04:52:11.743Z,-0.10
2022-12-15T04:54:57.628Z,-0.10
2022-12-15T04:57:43.552Z,-0.10
2022-12-15T05:00:32.472Z,-0.10
2022-12-15T05:03:23.704Z,-0.10
2022-12-15T05:06:09.797Z,-0.10
2022-12-15T05:08:56.183Z,-0.10
2022-12-15T05:11:42.046Z,0.00
2022-12-15T05:14:27.957Z,0.00
2022-12-15T05:17:14.995Z,0.00
2022-12-15T05:20:00.919Z,0.00
2022-12-15T05:22:47.047Z,0.00
2022-12-15T05:25:32.707Z,0.00
2022-12-15T05:28:18.499Z,0.00
2022-12-15T05:31:04.603Z,0.10
2022-12-15T05:33:34.604Z,0.10
2022-12-15T05:36:02.849Z,0.10
2022-12-15T05:38:31.084Z,0.00
2022-12-15T05:40:59.890Z,0.00
2022-12-15T05:43:29.734Z,0.00
2022-12-15T05:45:58.264Z,0.00
2022-12-15T05:48:28.657Z,0.00
2022-12-15T05:50:58.183Z,-0.10
2022-12-15T05:53:26.316Z,-0.10
2022-12-15T05:55:54.485Z,-0.10
2022-12-15T05:58:22.633Z,0.00
2022-12-15T06:00:50.859Z,0.10
2022-12-15T06:03:19.031Z,0.10
2022-12-15T06:05:50.463Z,0.10
2022-12-15T06:08:24.939Z,0.10
2022-12-15T06:10:54.792Z,0.10
2022-12-15T06:13:24.065Z,0.10
2022-12-15T06:15:57.903Z,0.10
2022-12-15T06:18:29.012Z,0.00
2022-12-15T06:21:01.331Z,0.00
2022-12-15T06:23:34.973Z,0.00
2022-12-15T06:26:11.386Z,-0.10
2022-12-15T06:28:40.019Z,-0.10
2022-12-15T06:31:10.798Z,-0.20
2022-12-15T06:33:40.174Z,-0.20
2022-12-15T06:36:11.375Z,-0.20
2022-12-15T06:38:43.579Z,-0.20
2022-12-15T06:41:15.181Z,-0.10
2022-12-15T06:43:44.167Z,-0.20
2022-12-15T06:46:12.435Z,-0.10
2022-12-15T06:48:42.227Z,-0.10
2022-12-15T06:51:16.861Z,-0.10
2022-12-15T06:53:48.939Z,-0.10
2022-12-15T06:56:25.818Z,-0.10
2022-12-15T06:58:59.373Z,-0.10
2022-12-15T07:01:27.968Z,-0.20
2022-12-15T07:03:56.985Z,-0.20
2022-12-15T07:06:25.720Z,-0.30
2022-12-15T07:08:56.593Z,-0.30
2022-12-15T07:11:25.287Z,-0.30
2022-12-15T07:13:54.788Z,-0.40
2022-12-15T07:16:24.634Z,-0.30
2022-12-15T07:18:53.015Z,-0.30
2022-12-15T07:21:21.205Z,-0.30
2022-12-15T07:23:57.521Z,-0.20
2022-12-15T07:26:27.744Z,-0.20
2022-12-15T07:28:56.623Z,-0.20
2022-12-15T07:31:25.129Z,-0.20
2022-12-15T07:33:54.746Z,-0.10
2022-12-15T07:36:23.452Z,-0.10
2022-12-15T07:38:52.254Z,-0.10
2022-12-15T07:41:21.912Z,-0.10
2022-12-15T07:43:51.520Z,0.00
2022-12-15T07:46:20.399Z,0.00
2022-12-15T07:48:50.913Z,0.00
2022-12-15T07:51:21.253Z,0.00
2022-12-15T07:53:51.127Z,0.00
2022-12-15T07:56:20.837Z,0.10
2022-12-15T07:58:50.793Z,0.10
2022-12-15T08:01:19.406Z,0.10
2022-12-15T08:03:48.460Z,0.20
2022-12-15T08:06:16.974Z,0.30
2022-12-15T08:08:50.438Z,0.30
2022-12-15T08:11:22.248Z,0.40
2022-12-15T08:14:14.988Z,0.40
2022-12-15T08:16:41.551Z,0.40
2022-12-15T08:19:15.291Z,0.50
2022-12-15T08:21:46.842Z,0.50
2022-12-15T08:24:16.246Z,0.50
2022-12-15T08:26:50.132Z,0.50
2022-12-15T08:32:08.817Z,0.70
2022-12-15T08:34:37.303Z,0.70
2022-12-15T08:37:05.549Z,0.70
2022-12-15T08:39:33.700Z,0.70
2022-12-15T08:42:01.966Z,0.80
2022-12-15T08:44:31.609Z,0.80
2022-12-15T08:46:59.877Z,0.80
2022-12-15T08:49:28.016Z,0.90
2022-12-15T08:51:56.322Z,0.90
2022-12-15T08:54:24.530Z,1.00
2022-12-15T08:56:52.715Z,1.10
2022-12-15T08:59:20.949Z,1.10
2022-12-15T09:01:50.828Z,1.10
2022-12-15T09:04:19.768Z,1.20
2022-12-15T09:06:50.212Z,1.20
2022-12-15T09:09:19.191Z,1.30
2022-12-15T09:11:47.471Z,1.40
2022-12-15T09:14:16.039Z,1.40
2022-12-15T09:16:44.444Z,1.40
2022-12-15T09:19:14.667Z,1.40
2022-12-15T09:21:44.950Z,1.50
2022-12-15T09:24:24.681Z,1.50
2022-12-15T09:26:54.605Z,1.60
2022-12-15T09:29:23.177Z,1.60
2022-12-15T09:31:51.719Z,1.70
2022-12-15T09:34:21.392Z,1.70
2022-12-15T09:36:49.520Z,1.70
2022-12-15T09:39:18.008Z,1.70
2022-12-15T09:41:54.627Z,1.80
2022-12-15T09:44:25.279Z,1.80
2022-12-15T09:47:15.947Z,1.80
2022-12-15T09:49:56.072Z,1.80
2022-12-15T09:52:28.978Z,1.90
2022-12-15T09:54:58.194Z,1.90
2022-12-15T09:57:38.303Z,1.90
2022-12-15T10:00:16.796Z,2.00
2022-12-15T10:03:23.839Z,1.90
2022-12-15T10:08:59.761Z,2.00
2022-12-15T10:11:44.339Z,2.10
2022-12-15T10:14:29.072Z,2.10
2022-12-15T10:17:08.286Z,2.10
2022-12-15T10:19:45.516Z,2.20
2022-12-15T10:22:24.609Z,2.10
2022-12-15T10:25:11.043Z,2.20
2022-12-15T10:28:00.402Z,2.20
2022-12-15T10:30:28.898Z,2.20
2022-12-15T10:33:04.968Z,2.20
2022-12-15T10:35:36.076Z,2.20
2022-12-15T10:38:10.280Z,2.20
2022-12-15T10:40:50.321Z,2.20
2022-12-15T10:43:29.425Z,2.10
2022-12-15T10:46:11.803Z,2.10
2022-12-15T10:48:40.685Z,2.00
2022-12-15T10:51:18.647Z,2.10
2022-12-15T10:53:51.009Z,2.20
2022-12-15T10:56:32.823Z,2.30
2022-12-15T10:59:05.562Z,2.40
2022-12-15T11:01:36.072Z,2.50
2022-12-15T11:04:04.717Z,2.50
2022-12-15T11:06:36.837Z,2.50
2022-12-15T11:09:35.676Z,2.40
2022-12-15T11:12:36.740Z,2.40
2022-12-15T11:15:40.957Z,2.40
2022-12-15T11:18:28.737Z,2.50
2022-12-15T11:21:04.127Z,2.50
2022-12-15T11:24:00.677Z,2.50
2022-12-15T11:26:47.095Z,2.50
2022-12-15T11:29:29.373Z,2.50
2022-12-15T11:32:03.235Z,2.60
2022-12-15T11:34:39.124Z,2.70
2022-12-15T11:37:37.521Z,2.80
2022-12-15T11:40:32.306Z,2.80
2022-12-15T11:43:31.970Z,2.80
2022-12-15T11:46:18.422Z,2.80
2022-12-15T11:49:03.374Z,2.90
2022-12-15T11:51:44.044Z,2.80
2022-12-15T11:54:23.998Z,2.80
2022-12-15T11:56:59.242Z,2.70
2022-12-15T12:00:03.486Z,2.60
2022-12-15T12:03:03.126Z,2.60
2022-12-15T12:06:01.247Z,2.60
2022-12-15T12:08:52.334Z,2.60
2022-12-15T12:11:25.735Z,2.60
2022-12-15T12:14:15.770Z,2.60
2022-12-15T12:16:57.426Z,2.70
2022-12-15T12:19:33.267Z,2.70
2022-12-15T12:22:07.803Z,2.60
2022-12-15T12:24:44.659Z,2.60
2022-12-15T12:27:27.795Z,2.60
2022-12-15T12:30:05.299Z,2.60
2022-12-15T12:32:48.401Z,2.60
2022-12-15T12:35:32.363Z,2.70
2022-12-15T12:38:04.452Z,2.70
2022-12-15T12:40:47.929Z,2.70
2022-12-15T12:43:34.095Z,2.70
2022-12-15T12:46:10.282Z,2.70
2022-12-15T12:48:45.521Z,2.80
2022-12-15T12:51:28.553Z,2.80
2022-12-15T12:53:58.238Z,2.90
2022-12-15T12:56:39.508Z,3.00
2022-12-15T12:59:38.001Z,2.90
2022-12-15T13:02:46.685Z,3.00
2022-12-15T13:05:34.284Z,3.00
2022-12-15T13:08:52.090Z,3.10
2022-12-15T13:12:14.973Z,3.20
2022-12-15T13:14:59.240Z,3.30
2022-12-15T13:17:32.452Z,3.30
2022-12-15T13:20:27.455Z,3.40
2022-12-15T13:23:33.939Z,3.50
2022-12-15T13:26:13.680Z,3.50
2022-12-15T13:28:46.993Z,3.60
2022-12-15T13:31:31.796Z,3.60
2022-12-15T13:34:15.464Z,3.60
2022-12-15T13:36:58.584Z,3.40
2022-12-15T13:39:58.278Z,3.40
2022-12-15T13:42:37.026Z,3.40
2022-12-15T13:45:53.380Z,3.30
2022-12-15T13:48:33.051Z,3.10
2022-12-15T13:51:23.290Z,3.10
2022-12-15T13:53:58.697Z,3.00
2022-12-15T13:56:47.298Z,2.90
2022-12-15T13:59:30.829Z,2.80
2022-12-15T14:01:59.295Z,2.80
2022-12-15T14:04:28.232Z,2.70
2022-12-15T14:07:01.316Z,2.60
2022-12-15T14:09:33.861Z,2.60
2022-12-15T14:12:09.582Z,2.50
2022-12-15T14:14:44.369Z,2.50
2022-12-15T14:17:18.675Z,2.50
2022-12-15T14:19:51.073Z,2.40
2022-12-15T14:22:28.573Z,2.30
2022-12-15T14:25:06.134Z,2.30
2022-12-15T14:27:35.672Z,2.20
2022-12-15T14:30:29.490Z,2.20
2022-12-15T14:33:02.889Z,2.10
2022-12-15T14:35:38.090Z,2.10
2022-12-15T14:38:12.642Z,2.10
2022-12-15T14:40:42.295Z,2.20
2022-12-15T14:43:25.094Z,2.10
2022-12-15T14:45:58.210Z,2.10
2022-12-15T14:48:41.059Z,2.10
2022-12-15T14:51:14.019Z,2.10
2022-12-15T14:53:44.590Z,2.10
2022-12-15T14:56:31.205Z,2.00
2022-12-15T14:59:04.697Z,2.10
2022-12-15T15:01:42.226Z,2.10
2022-12-15T15:03:03.793Z,2.00
2022-12-15T15:04:29.078Z,2.00
2022-12-15T15:07:00.995Z,2.00
2022-12-15T15:09:32.842Z,1.90
2022-12-15T15:12:05.181Z,1.90
2022-12-15T15:14:40.102Z,1.80
2022-12-15T15:17:20.076Z,1.80
2022-12-15T15:19:53.062Z,1.80
2022-12-15T15:22:40.710Z,1.70
2022-12-15T15:25:31.629Z,1.70
2022-12-15T15:28:16.630Z,1.70
2022-12-15T15:30:48.846Z,1.70
2022-12-15T15:33:17.683Z,1.70
2022-12-15T15:35:48.504Z,1.70
2022-12-15T15:38:26.947Z,1.80
2022-12-15T15:40:58.208Z,1.80
2022-12-15T15:43:28.597Z,1.70
2022-12-15T15:46:02.896Z,1.70
2022-12-15T15:48:35.820Z,1.70
2022-12-15T15:51:05.994Z,1.70
2022-12-15T15:53:36.596Z,1.70
2022-12-15T15:56:07.660Z,1.70
2022-12-15T15:58:36.771Z,1.70
2022-12-15T16:01:12.671Z,1.60
2022-12-15T16:03:41.739Z,1.60
2022-12-15T16:06:19.298Z,1.70
2022-12-15T16:08:52.554Z,1.70
2022-12-15T16:11:23.058Z,1.70
2022-12-15T16:13:51.316Z,1.60
2022-12-15T16:16:23.550Z,1.60
2022-12-15T16:18:51.765Z,1.60
2022-12-15T16:21:22.806Z,1.60
2022-12-15T16:23:51.154Z,1.60
2022-12-15T16:26:28.984Z,1.50
2022-12-15T16:28:57.556Z,1.60
2022-12-15T16:31:40.659Z,1.50
2022-12-15T16:34:09.870Z,1.50
2022-12-15T16:36:41.417Z,1.50
2022-12-15T16:39:27.237Z,1.50
2022-12-15T16:41:56.850Z,1.50
2022-12-15T16:44:27.002Z,1.50
2022-12-15T16:46:57.482Z,1.50
2022-12-15T16:49:27.643Z,1.50
2022-12-15T16:51:56.119Z,1.50
2022-12-15T16:54:28.160Z,1.50
2022-12-15T16:56:58.430Z,1.50
2022-12-15T16:59:35.921Z,1.50
2022-12-15T17:02:25.110Z,1.50
2022-12-15T17:04:55.553Z,1.50
2022-12-15T17:07:25.500Z,1.60
2022-12-15T17:09:54.177Z,1.50
2022-12-15T17:12:22.526Z,1.60
2022-12-15T17:14:50.815Z,1.60
2022-12-15T17:17:21.282Z,1.60
2022-12-15T17:20:19.646Z,1.60
2022-12-15T17:22:38.282Z,1.50
2022-12-15T17:25:10.444Z,1.50
2022-12-15T17:27:39.103Z,1.50
2022-12-15T17:30:14.757Z,1.50
2022-12-15T17:32:45.601Z,1.50
2022-12-15T17:35:13.943Z,1.40
2022-12-15T17:37:42.892Z,1.40
2022-12-15T17:40:23.636Z,1.40
2022-12-15T17:42:52.173Z,1.30
2022-12-15T17:45:24.688Z,1.30
2022-12-15T17:47:54.983Z,1.30
2022-12-15T17:50:23.328Z,1.30
2022-12-15T17:52:51.579Z,1.20
2022-12-15T17:55:24.469Z,1.20
2022-12-15T17:57:55.502Z,1.20
2022-12-15T18:00:26.990Z,1.20
2022-12-15T18:02:57.957Z,1.20
2022-12-15T18:05:29.643Z,1.10
2022-12-15T18:08:00.172Z,1.10
2022-12-15T18:10:34.974Z,1.10
2022-12-15T18:13:03.312Z,1.10
2022-12-15T18:15:33.093Z,1.10
2022-12-15T18:18:02.700Z,1.10
2022-12-15T18:20:31.023Z,1.00
2022-12-15T18:22:59.181Z,1.10
2022-12-15T18:25:30.094Z,1.10
2022-12-15T18:27:59.574Z,1.10
2022-12-15T18:30:28.847Z,1.10
2022-12-15T18:32:59.665Z,1.10
2022-12-15T18:35:36.431Z,1.10
2022-12-15T18:38:14.011Z,1.10
2022-12-15T18:40:42.256Z,1.10
2022-12-15T18:43:16.212Z,1.10
2022-12-15T18:45:45.306Z,1.10
2022-12-15T18:48:19.295Z,1.10
2022-12-15T18:50:52.408Z,1.10
2022-12-15T18:53:27.474Z,1.10
2022-12-15T18:55:56.341Z,1.10
2022-12-15T18:58:27.439Z,1.10
2022-12-15T19:00:58.889Z,1.10
2022-12-15T19:03:28.371Z,1.20
2022-12-15T19:06:03.224Z,1.20
2022-12-15T19:08:36.164Z,1.10
2022-12-15T19:11:08.375Z,1.20
2022-12-15T19:13:39.375Z,1.10
2022-12-15T19:16:22.099Z,1.10
2022-12-15T19:19:11.246Z,1.10
2022-12-15T19:22:01.794Z,1.00
2022-12-15T19:24:51.040Z,1.00
2022-12-15T19:27:23.154Z,1.00
2022-12-15T19:29:52.309Z,1.00
2022-12-15T19:32:20.484Z,1.00
2022-12-15T19:34:49.043Z,1.00
2022-12-15T19:37:25.407Z,1.00
2022-12-15T19:39:54.288Z,1.00
2022-12-15T19:42:28.554Z,1.00
2022-12-15T19:44:57.881Z,1.00
2022-12-15T19:47:26.988Z,1.00
2022-12-15T19:49:56.435Z,1.00
2022-12-15T19:52:26.112Z,0.90
2022-12-15T19:54:57.095Z,1.00
2022-12-15T19:57:25.699Z,1.00
2022-12-15T19:59:53.924Z,1.00
2022-12-15T20:02:23.301Z,1.00
2022-12-15T20:04:51.703Z,1.00
2022-12-15T20:07:27.116Z,1.00
2022-12-15T20:09:56.021Z,1.00
2022-12-15T20:12:24.290Z,0.90
2022-12-15T20:14:52.843Z,1.00
2022-12-15T20:17:21.584Z,1.00
2022-12-15T20:19:49.841Z,1.00
2022-12-15T20:22:19.940Z,1.10
2022-12-15T20:24:49.706Z,1.10
2022-12-15T20:27:20.353Z,1.10
2022-12-15T20:29:48.581Z,1.00
2022-12-15T20:32:21.371Z,1.00
2022-12-15T20:34:51.099Z,1.00
2022-12-15T20:37:30.217Z,1.00
2022-12-15T20:39:59.745Z,1.00
2022-12-15T20:42:28.057Z,0.90
2022-12-15T20:44:56.313Z,0.90
2022-12-15T20:47:27.701Z,0.90
2022-12-15T20:49:56.769Z,0.90
2022-12-15T20:52:27.623Z,0.90
2022-12-15T20:54:56.459Z,0.90
2022-12-15T20:57:26.010Z,0.80
2022-12-15T20:59:54.505Z,0.80
2022-12-15T21:02:24.916Z,0.80
2022-12-15T21:04:53.388Z,0.80
2022-12-15T21:07:21.661Z,0.80
2022-12-15T21:09:49.854Z,0.80
2022-12-15T21:12:21.028Z,0.80
2022-12-15T21:14:50.996Z,0.70
2022-12-15T21:17:25.840Z,0.70
2022-12-15T21:19:55.188Z,0.70
2022-12-15T21:22:26.652Z,0.70
2022-12-15T21:24:58.418Z,0.80
2022-12-15T21:27:26.665Z,0.80
2022-12-15T21:29:56.219Z,0.80
2022-12-15T21:32:24.674Z,0.70
2022-12-15T21:34:52.848Z,0.70
2022-12-15T21:37:28.536Z,0.70
2022-12-15T21:39:57.916Z,0.70
2022-12-15T21:42:27.216Z,0.70
2022-12-15T21:44:56.916Z,0.60
2022-12-15T21:47:47.492Z,0.60
2022-12-15T21:50:15.334Z,0.50
2022-12-15T21:52:44.269Z,0.60
2022-12-15T21:55:16.538Z,0.50
2022-12-15T21:57:44.993Z,0.50
2022-12-15T22:00:18.584Z,0.50
2022-12-15T22:02:48.825Z,0.40
2022-12-15T22:05:20.430Z,0.50
2022-12-15T22:07:48.832Z,0.50
2022-12-15T22:10:18.060Z,0.50
2022-12-15T22:12:57.434Z,0.50
2022-12-15T22:15:30.511Z,0.40
2022-12-15T22:17:58.873Z,0.50
2022-12-15T22:20:27.243Z,0.50
2022-12-15T22:22:55.628Z,0.50
2022-12-15T22:25:26.558Z,0.40
2022-12-15T22:27:55.162Z,0.40
2022-12-15T22:30:26.496Z,0.40
2022-12-15T22:32:58.472Z,0.30
2022-12-15T22:35:28.048Z,0.40
2022-12-15T22:37:56.613Z,0.40
2022-12-15T22:40:26.170Z,0.40
2022-12-15T22:42:58.870Z,0.40
2022-12-15T22:45:27.089Z,0.40
2022-12-15T22:47:59.839Z,0.40
2022-12-15T22:50:28.614Z,0.40
2022-12-15T22:53:03.612Z,0.40
2022-12-15T22:55:31.893Z,0.40
2022-12-15T22:58:03.889Z,0.40
2022-12-15T23:00:32.246Z,0.40
2022-12-15T23:03:04.628Z,0.30
2022-12-15T23:05:33.445Z,0.30
2022-12-15T23:08:01.973Z,0.30
2022-12-15T23:10:48.230Z,0.30
2022-12-15T23:13:16.567Z,0.30
2022-12-15T23:16:05.082Z,0.30
2022-12-15T23:18:36.310Z,0.30
2022-12-15T23:21:15.200Z,0.20
2022-12-15T23:23:43.838Z,0.30
2022-12-15T23:26:12.707Z,0.20
2022-12-15T23:28:41.187Z,0.20
2022-12-15T23:31:09.831Z,0.20
2022-12-15T23:33:39.863Z,0.20
2022-12-15T23:36:09.770Z,0.20
2022-12-15T23:38:38.099Z,0.10
2022-12-15T23:41:06.848Z,0.10
2022-12-15T23:43:37.083Z,0.10
2022-12-15T23:46:07.303Z,0.10
2022-12-15T23:48:41.508Z,0.10
2022-12-15T23:51:13.408Z,0.00
2022-12-15T23:53:42.846Z,0.00
2022-12-15T23:56:14.619Z,0.00
2022-12-15T23:58:44.999Z,0.00
